This is the latest recevied weather packets stored in our database for station/object SV4JYD-14. If no packets are shown the sender has not sent any weather packets the latest 10 day(s).
| Time | Temp. | Humidity | Pressure | Rain* | Wind** | Luminosity | Snow |
|---|---|---|---|---|---|---|---|
| 1777839327 | 11.67° C | 63% | 1015 hPa | 0 mm | - | - | - |
| 1777837527 | 12.22° C | 65% | 1014 hPa | 0 mm | - | - | - |
| 1777836627 | 12.22° C | 65% | 1014 hPa | 0 mm | - | - | - |
| 1777834826 | 12.22° C | 65% | 1014 hPa | 0 mm | - | - | - |
| 1777833027 | 12.22° C | 66% | 1014 hPa | 0 mm | - | - | - |
| 1777829425 | 12.22° C | 64% | 1013 hPa | 0 mm | - | - | - |
| 1777826724 | 12.22° C | 66% | 1012 hPa | 0 mm | - | - | - |
| 1777824023 | 12.22° C | 68% | 1012 hPa | 0 mm | - | - | - |
| 1777822223 | 12.22° C | 71% | 1012 hPa | 0 mm | - | - | - |
| 1777814089 | 11.11° C | 77% | 1012 hPa | 0.25 mm | - | - | - |
| 1777811168 | 10° C | 81% | 1012 hPa | 0.25 mm | - | - | - |
| 1777809368 | 10° C | 81% | 1012 hPa | 0 mm | - | - | - |
| 1777808468 | 10° C | 81% | 1012 hPa | 0.25 mm | - | - | - |
| 1777806667 | 10° C | 80% | 1013 hPa | 0 mm | - | - | - |
| 1777805767 | 10° C | 79% | 1012 hPa | 0 mm | - | - | - |
| 1777804867 | 10° C | 78% | 1012 hPa | 0 mm | - | - | - |
| 1777803966 | 10.56° C | 79% | 1012 hPa | 0 mm | - | - | - |
| 1777803066 | 10° C | 80% | 1013 hPa | 0 mm | - | - | - |
| 1777802166 | 10.56° C | 79% | 1012 hPa | 0 mm | - | - | - |
| 1777801266 | 10.56° C | 78% | 1012 hPa | 0 mm | - | - | - |
| 1777800365 | 10° C | 79% | 1013 hPa | 0 mm | - | - | - |
| 1777799465 | 10.56° C | 74% | 1013 hPa | 0 mm | - | - | - |
| 1777798565 | 10.56° C | 74% | 1013 hPa | 0 mm | - | - | - |
| 1777797664 | 10.56° C | 73% | 1013 hPa | 0 mm | - | - | - |
| 1777796764 | 10.56° C | 72% | 1013 hPa | 0 mm | - | - | - |
* Rain latest hour (hover to see other rain measurements)
** Current wind speed in m/s (hover to see current wind gust speed)